sensor_id;sensor_type;location;lat;lon;timestamp;pressure;altitude;pressure_sealevel;temperature;humidity
10688;BME280;5392;42.688;23.298;2023-05-19T00:02:01;57580.41;;;-144.48;100.00
10688;BME280;5392;42.688;23.298;2023-05-19T00:04:31;57647.22;;;-144.48;100.00
10688;BME280;5392;42.688;23.298;2023-05-19T00:06:59;57649.28;;;-144.48;100.00
10688;BME280;5392;42.688;23.298;2023-05-19T00:09:26;57624.25;;;-144.48;100.00
10688;BME280;5392;42.688;23.298;2023-05-19T00:11:54;57590.84;;;-144.48;100.00
10688;BME280;5392;42.688;23.298;2023-05-19T00:14:22;57622.16;;;-144.48;100.00
10688;BME280;5392;42.688;23.298;2023-05-19T00:16:49;57588.75;;;-144.48;100.00
10688;BME280;5392;42.688;23.298;2023-05-19T00:19:16;57597.09;;;-144.48;100.00
10688;BME280;5392;42.688;23.298;2023-05-19T00:21:43;57607.53;;;-144.48;100.00
10688;BME280;5392;42.688;23.298;2023-05-19T00:24:09;57613.81;;;-144.48;100.00
10688;BME280;5392;42.688;23.298;2023-05-19T00:26:36;57603.38;;;-144.48;100.00
10688;BME280;5392;42.688;23.298;2023-05-19T00:29:03;57649.28;;;-144.48;100.00
10688;BME280;5392;42.688;23.298;2023-05-19T00:31:30;57582.50;;;-144.48;100.00
10688;BME280;5392;42.688;23.298;2023-05-19T00:33:58;57611.72;;;-144.48;100.00
10688;BME280;5392;42.688;23.298;2023-05-19T00:36:25;57605.47;;;-144.48;100.00
10688;BME280;5392;42.688;23.298;2023-05-19T00:38:52;57611.72;;;-144.48;100.00
10688;BME280;5392;42.688;23.298;2023-05-19T00:41:19;57611.72;;;-144.48;100.00
10688;BME280;5392;42.688;23.298;2023-05-19T00:43:46;57613.81;;;-144.48;100.00
10688;BME280;5392;42.688;23.298;2023-05-19T00:46:13;57613.81;;;-144.48;100.00
10688;BME280;5392;42.688;23.298;2023-05-19T00:48:40;57588.75;;;-144.48;100.00
10688;BME280;5392;42.688;23.298;2023-05-19T00:51:11;57584.59;;;-144.48;100.00
10688;BME280;5392;42.688;23.298;2023-05-19T00:53:40;57603.38;;;-144.48;100.00
10688;BME280;5392;42.688;23.298;2023-05-19T00:56:06;57601.28;;;-144.48;100.00
10688;BME280;5392;42.688;23.298;2023-05-19T00:58:34;57636.78;;;-144.48;100.00
10688;BME280;5392;42.688;23.298;2023-05-19T01:01:01;57651.38;;;-144.48;100.00
10688;BME280;5392;42.688;23.298;2023-05-19T01:03:30;57576.22;;;-144.48;100.00
10688;BME280;5392;42.688;23.298;2023-05-19T01:05:58;57603.38;;;-144.48;100.00
10688;BME280;5392;42.688;23.298;2023-05-19T01:08:27;57567.88;;;-144.48;100.00
10688;BME280;5392;42.688;23.298;2023-05-19T01:10:54;57584.59;;;-144.48;100.00
10688;BME280;5392;42.688;23.298;2023-05-19T01:13:21;57586.66;;;-144.48;100.00
10688;BME280;5392;42.688;23.298;2023-05-19T01:18:26;57613.81;;;-144.48;100.00
10688;BME280;5392;42.688;23.298;2023-05-19T01:31:54;57599.19;;;-144.48;100.00
10688;BME280;5392;42.688;23.298;2023-05-19T01:34:25;57567.88;;;-144.48;100.00
10688;BME280;5392;42.688;23.298;2023-05-19T01:36:54;57601.28;;;-144.48;100.00
10688;BME280;5392;42.688;23.298;2023-05-19T01:39:22;57609.63;;;-144.48;100.00
10688;BME280;5392;42.688;23.298;2023-05-19T01:41:49;57609.63;;;-144.48;100.00
10688;BME280;5392;42.688;23.298;2023-05-19T01:44:17;57626.34;;;-144.48;100.00
10688;BME280;5392;42.688;23.298;2023-05-19T01:46:46;57666.00;;;-144.48;100.00
10688;BME280;5392;42.688;23.298;2023-05-19T01:49:13;57592.94;;;-144.48;100.00
10688;BME280;5392;42.688;23.298;2023-05-19T01:51:40;57663.91;;;-144.48;100.00
10688;BME280;5392;42.688;23.298;2023-05-19T01:54:06;57578.31;;;-144.48;100.00
10688;BME280;5392;42.688;23.298;2023-05-19T02:02:24;57601.28;;;-144.48;100.00
10688;BME280;5392;42.688;23.298;2023-05-19T02:04:59;57597.09;;;-144.48;100.00
10688;BME280;5392;42.688;23.298;2023-05-19T02:07:43;57592.94;;;-144.48;100.00
10688;BME280;5392;42.688;23.298;2023-05-19T02:10:15;57609.63;;;-144.48;100.00
10688;BME280;5392;42.688;23.298;2023-05-19T02:12:44;57615.91;;;-144.48;100.00
10688;BME280;5392;42.688;23.298;2023-05-19T02:15:24;57611.72;;;-144.48;100.00
10688;BME280;5392;42.688;23.298;2023-05-19T02:17:54;57611.72;;;-144.48;100.00
10688;BME280;5392;42.688;23.298;2023-05-19T02:20:23;57632.59;;;-144.48;100.00
10688;BME280;5392;42.688;23.298;2023-05-19T02:22:50;57609.63;;;-144.48;100.00
10688;BME280;5392;42.688;23.298;2023-05-19T02:25:17;57580.41;;;-144.48;100.00
10688;BME280;5392;42.688;23.298;2023-05-19T02:27:43;57586.66;;;-144.48;100.00
10688;BME280;5392;42.688;23.298;2023-05-19T02:30:10;57630.50;;;-144.48;100.00
10688;BME280;5392;42.688;23.298;2023-05-19T02:32:37;57588.75;;;-144.48;100.00
10688;BME280;5392;42.688;23.298;2023-05-19T02:35:04;57599.19;;;-144.48;100.00
10688;BME280;5392;42.688;23.298;2023-05-19T02:37:31;57592.94;;;-144.48;100.00
10688;BME280;5392;42.688;23.298;2023-05-19T02:39:58;57647.22;;;-144.48;100.00
10688;BME280;5392;42.688;23.298;2023-05-19T02:42:24;57609.63;;;-144.48;100.00
10688;BME280;5392;42.688;23.298;2023-05-19T02:44:53;57636.78;;;-144.48;100.00
10688;BME280;5392;42.688;23.298;2023-05-19T02:47:20;57632.59;;;-144.48;100.00
10688;BME280;5392;42.688;23.298;2023-05-19T02:49:46;57582.50;;;-144.48;100.00
10688;BME280;5392;42.688;23.298;2023-05-19T02:52:13;57595.03;;;-144.48;100.00
10688;BME280;5392;42.688;23.298;2023-05-19T02:54:40;57622.16;;;-144.48;100.00
10688;BME280;5392;42.688;23.298;2023-05-19T02:57:07;57617.97;;;-144.48;100.00
10688;BME280;5392;42.688;23.298;2023-05-19T02:59:33;57597.09;;;-144.48;100.00
10688;BME280;5392;42.688;23.298;2023-05-19T03:02:01;57595.03;;;-144.48;100.00
10688;BME280;5392;42.688;23.298;2023-05-19T03:04:28;57597.09;;;-144.48;100.00
10688;BME280;5392;42.688;23.298;2023-05-19T03:06:55;57628.41;;;-144.48;100.00
10688;BME280;5392;42.688;23.298;2023-05-19T03:09:23;57605.47;;;-144.48;100.00
10688;BME280;5392;42.688;23.298;2023-05-19T03:11:49;57628.41;;;-144.48;100.00
10688;BME280;5392;42.688;23.298;2023-05-19T03:14:16;57615.91;;;-144.48;100.00
10688;BME280;5392;42.688;23.298;2023-05-19T03:16:44;57617.97;;;-144.48;100.00
10688;BME280;5392;42.688;23.298;2023-05-19T03:19:11;57632.59;;;-144.48;100.00
10688;BME280;5392;42.688;23.298;2023-05-19T03:21:38;57636.78;;;-144.48;100.00
10688;BME280;5392;42.688;23.298;2023-05-19T03:24:04;57626.34;;;-144.48;100.00
10688;BME280;5392;42.688;23.298;2023-05-19T03:26:32;57626.34;;;-144.48;100.00
10688;BME280;5392;42.688;23.298;2023-05-19T03:28:58;57599.19;;;-144.48;100.00
10688;BME280;5392;42.688;23.298;2023-05-19T03:31:25;57613.81;;;-144.48;100.00
10688;BME280;5392;42.688;23.298;2023-05-19T03:33:52;57607.53;;;-144.48;100.00
10688;BME280;5392;42.688;23.298;2023-05-19T03:36:18;57605.47;;;-144.48;100.00
10688;BME280;5392;42.688;23.298;2023-05-19T03:38:45;57613.81;;;-144.48;100.00
10688;BME280;5392;42.688;23.298;2023-05-19T03:41:12;57611.72;;;-144.48;100.00
10688;BME280;5392;42.688;23.298;2023-05-19T03:43:39;57592.94;;;-144.48;100.00
10688;BME280;5392;42.688;23.298;2023-05-19T03:46:06;57597.09;;;-144.48;100.00
10688;BME280;5392;42.688;23.298;2023-05-19T03:48:33;57582.50;;;-144.48;100.00
10688;BME280;5392;42.688;23.298;2023-05-19T03:51:00;57584.59;;;-144.48;100.00
10688;BME280;5392;42.688;23.298;2023-05-19T03:53:26;57609.63;;;-144.48;100.00
10688;BME280;5392;42.688;23.298;2023-05-19T03:55:55;57574.16;;;-144.48;100.00
10688;BME280;5392;42.688;23.298;2023-05-19T03:58:22;57603.38;;;-144.48;100.00
10688;BME280;5392;42.688;23.298;2023-05-19T04:00:49;57551.19;;;-144.48;100.00
10688;BME280;5392;42.688;23.298;2023-05-19T04:03:16;57592.94;;;-144.48;100.00
10688;BME280;5392;42.688;23.298;2023-05-19T04:05:43;57584.59;;;-144.48;96.70
10688;BME280;5392;42.688;23.298;2023-05-19T04:08:10;57597.09;;;-144.48;92.48
10688;BME280;5392;42.688;23.298;2023-05-19T04:10:36;57607.53;;;-144.48;84.97
10688;BME280;5392;42.688;23.298;2023-05-19T04:13:03;57542.84;;;-144.48;78.73
10688;BME280;5392;42.688;23.298;2023-05-19T04:15:29;57584.59;;;-144.48;70.52
10688;BME280;5392;42.688;23.298;2023-05-19T04:17:56;57567.88;;;-144.48;62.87
10688;BME280;5392;42.688;23.298;2023-05-19T04:20:23;57526.13;;;-144.48;61.78
10688;BME280;5392;42.688;23.298;2023-05-19T04:22:49;57551.19;;;-144.48;60.43
10688;BME280;5392;42.688;23.298;2023-05-19T04:25:16;57553.28;;;-144.48;59.96
10688;BME280;5392;42.688;23.298;2023-05-19T04:27:45;57549.09;;;-144.48;57.49
10688;BME280;5392;42.688;23.298;2023-05-19T04:30:13;57553.28;;;-144.48;56.25
10688;BME280;5392;42.688;23.298;2023-05-19T04:32:47;57532.41;;;-144.48;56.23
10688;BME280;5392;42.688;23.298;2023-05-19T04:35:17;57559.53;;;-144.48;54.60
10688;BME280;5392;42.688;23.298;2023-05-19T04:37:44;57496.91;;;-144.48;54.90
10688;BME280;5392;42.688;23.298;2023-05-19T04:40:12;57513.63;;;-144.48;55.17
10688;BME280;5392;42.688;23.298;2023-05-19T04:42:39;57501.09;;;-144.48;55.49
10688;BME280;5392;42.688;23.298;2023-05-19T04:45:11;57513.63;;;-144.48;56.34
10688;BME280;5392;42.688;23.298;2023-05-19T04:47:40;57513.63;;;-144.48;56.61
10688;BME280;5392;42.688;23.298;2023-05-19T04:50:08;57511.53;;;-144.48;55.65
10688;BME280;5392;42.688;23.298;2023-05-19T04:52:36;57488.56;;;-144.48;55.38
10688;BME280;5392;42.688;23.298;2023-05-19T04:55:03;57499.00;;;-144.48;56.43
10688;BME280;5392;42.688;23.298;2023-05-19T04:57:30;57476.03;;;-144.48;55.97
10688;BME280;5392;42.688;23.298;2023-05-19T04:59:56;57519.88;;;-144.48;55.37
10688;BME280;5392;42.688;23.298;2023-05-19T05:02:25;57517.78;;;-144.48;55.94
10688;BME280;5392;42.688;23.298;2023-05-19T05:04:55;57505.25;;;-144.48;56.02
10688;BME280;5392;42.688;23.298;2023-05-19T05:07:22;57501.09;;;-144.48;55.98
10688;BME280;5392;42.688;23.298;2023-05-19T05:09:49;57499.00;;;-144.48;54.82
10688;BME280;5392;42.688;23.298;2023-05-19T05:12:17;57542.84;;;-144.48;56.40
10688;BME280;5392;42.688;23.298;2023-05-19T05:14:44;57536.56;;;-144.48;55.88
10688;BME280;5392;42.688;23.298;2023-05-19T05:17:12;57490.66;;;-144.48;56.68
10688;BME280;5392;42.688;23.298;2023-05-19T05:19:39;57517.78;;;-144.48;57.08
10688;BME280;5392;42.688;23.298;2023-05-19T05:22:06;57524.06;;;-144.48;55.42
10688;BME280;5392;42.688;23.298;2023-05-19T05:24:33;57534.50;;;-144.48;53.81
10688;BME280;5392;42.688;23.298;2023-05-19T05:27:00;57519.88;;;-144.48;53.49
10688;BME280;5392;42.688;23.298;2023-05-19T05:29:27;57526.13;;;-144.48;55.40
10688;BME280;5392;42.688;23.298;2023-05-19T05:31:53;57513.63;;;-144.48;54.99
10688;BME280;5392;42.688;23.298;2023-05-19T05:34:20;57526.13;;;-144.48;54.81
10688;BME280;5392;42.688;23.298;2023-05-19T05:36:49;57459.34;;;-144.48;53.10
10688;BME280;5392;42.688;23.298;2023-05-19T05:39:16;57473.97;;;-144.48;53.55
10688;BME280;5392;42.688;23.298;2023-05-19T05:41:43;57505.25;;;-144.48;52.45
10688;BME280;5392;42.688;23.298;2023-05-19T05:44:10;57482.31;;;-144.48;53.43
10688;BME280;5392;42.688;23.298;2023-05-19T05:46:37;57496.91;;;-144.48;52.95
10688;BME280;5392;42.688;23.298;2023-05-19T05:49:05;57484.41;;;-144.48;52.66
10688;BME280;5392;42.688;23.298;2023-05-19T05:51:33;57457.25;;;-144.48;52.50
10688;BME280;5392;42.688;23.298;2023-05-19T05:54:00;57505.25;;;-144.48;51.66
10688;BME280;5392;42.688;23.298;2023-05-19T05:56:28;57448.91;;;-144.48;51.84
10688;BME280;5392;42.688;23.298;2023-05-19T05:58:55;57469.78;;;-144.48;51.47
10688;BME280;5392;42.688;23.298;2023-05-19T06:01:22;57465.59;;;-144.48;50.89
10688;BME280;5392;42.688;23.298;2023-05-19T06:03:51;57492.75;;;-144.48;51.21
10688;BME280;5392;42.688;23.298;2023-05-19T06:06:18;57467.69;;;-144.48;50.84
10688;BME280;5392;42.688;23.298;2023-05-19T06:08:44;57490.66;;;-144.48;51.04
10688;BME280;5392;42.688;23.298;2023-05-19T06:11:11;57473.97;;;-144.48;51.13
10688;BME280;5392;42.688;23.298;2023-05-19T06:13:38;57467.69;;;-144.48;50.91
10688;BME280;5392;42.688;23.298;2023-05-19T06:16:06;57501.09;;;-144.48;50.59
10688;BME280;5392;42.688;23.298;2023-05-19T06:18:33;57455.16;;;-144.48;50.43
10688;BME280;5392;42.688;23.298;2023-05-19T06:21:00;57490.66;;;-144.48;50.44
10688;BME280;5392;42.688;23.298;2023-05-19T06:23:27;57471.88;;;-144.48;50.21
10688;BME280;5392;42.688;23.298;2023-05-19T06:25:54;57461.44;;;-144.48;50.45
10688;BME280;5392;42.688;23.298;2023-05-19T06:28:21;57467.69;;;-144.48;50.16
10688;BME280;5392;42.688;23.298;2023-05-19T06:30:48;57448.91;;;-144.48;49.68
10688;BME280;5392;42.688;23.298;2023-05-19T06:33:15;57463.53;;;-144.48;50.71
10688;BME280;5392;42.688;23.298;2023-05-19T06:35:42;57442.66;;;-144.48;49.64
10688;BME280;5392;42.688;23.298;2023-05-19T06:38:08;57463.53;;;-144.48;49.04
10688;BME280;5392;42.688;23.298;2023-05-19T06:40:35;57476.03;;;-144.48;50.21
10688;BME280;5392;42.688;23.298;2023-05-19T06:43:02;57459.34;;;-144.48;49.89
10688;BME280;5392;42.688;23.298;2023-05-19T06:45:30;57517.78;;;-144.48;50.34
10688;BME280;5392;42.688;23.298;2023-05-19T06:47:57;57521.97;;;-144.48;51.77
10688;BME280;5392;42.688;23.298;2023-05-19T06:50:24;57442.66;;;-144.48;51.39
10688;BME280;5392;42.688;23.298;2023-05-19T06:52:51;57515.69;;;-144.48;51.39
10688;BME280;5392;42.688;23.298;2023-05-19T06:55:18;57459.34;;;-144.48;52.55
10688;BME280;5392;42.688;23.298;2023-05-19T06:57:45;57526.13;;;-144.48;51.32
10688;BME280;5392;42.688;23.298;2023-05-19T07:00:12;57542.84;;;-144.48;51.27
10688;BME280;5392;42.688;23.298;2023-05-19T07:02:43;57505.25;;;-144.48;51.13
10688;BME280;5392;42.688;23.298;2023-05-19T07:05:10;57482.31;;;-144.48;51.60
10688;BME280;5392;42.688;23.298;2023-05-19T07:07:37;57515.69;;;-144.48;51.36
10688;BME280;5392;42.688;23.298;2023-05-19T07:10:04;57515.69;;;-144.48;51.91
10688;BME280;5392;42.688;23.298;2023-05-19T07:12:30;57459.34;;;-144.48;50.78
10688;BME280;5392;42.688;23.298;2023-05-19T07:14:57;57478.13;;;-144.48;52.24
10688;BME280;5392;42.688;23.298;2023-05-19T07:17:24;57532.41;;;-144.48;52.49
10688;BME280;5392;42.688;23.298;2023-05-19T07:19:51;57540.75;;;-144.48;53.15
10688;BME280;5392;42.688;23.298;2023-05-19T07:22:17;57507.34;;;-144.48;53.22
10688;BME280;5392;42.688;23.298;2023-05-19T07:24:44;57511.53;;;-144.48;52.02
10688;BME280;5392;42.688;23.298;2023-05-19T07:27:10;57530.31;;;-144.48;53.02
10688;BME280;5392;42.688;23.298;2023-05-19T07:29:37;57532.41;;;-144.48;51.91
10688;BME280;5392;42.688;23.298;2023-05-19T07:32:04;57496.91;;;-144.48;51.75
10688;BME280;5392;42.688;23.298;2023-05-19T07:34:31;57519.88;;;-144.48;51.99
10688;BME280;5392;42.688;23.298;2023-05-19T07:36:58;57528.22;;;-144.48;53.15
10688;BME280;5392;42.688;23.298;2023-05-19T07:39:24;57536.56;;;-144.48;52.80
10688;BME280;5392;42.688;23.298;2023-05-19T07:41:54;57484.41;;;-144.48;52.25
10688;BME280;5392;42.688;23.298;2023-05-19T07:44:21;57501.09;;;-144.48;52.27
10688;BME280;5392;42.688;23.298;2023-05-19T07:46:48;57494.81;;;-144.48;53.15
10688;BME280;5392;42.688;23.298;2023-05-19T07:49:15;57515.69;;;-144.48;54.32
10688;BME280;5392;42.688;23.298;2023-05-19T07:51:42;57563.72;;;-144.48;53.76
10688;BME280;5392;42.688;23.298;2023-05-19T07:54:08;57503.19;;;-144.48;52.87
10688;BME280;5392;42.688;23.298;2023-05-19T07:56:35;57484.41;;;-144.48;52.16
10688;BME280;5392;42.688;23.298;2023-05-19T07:59:02;57549.09;;;-144.48;52.71
10688;BME280;5392;42.688;23.298;2023-05-19T08:01:30;57503.19;;;-144.48;53.05
10688;BME280;5392;42.688;23.298;2023-05-19T08:03:57;57505.25;;;-144.48;52.17
10688;BME280;5392;42.688;23.298;2023-05-19T08:06:24;57536.56;;;-144.48;51.55
10688;BME280;5392;42.688;23.298;2023-05-19T08:08:51;57534.50;;;-144.48;51.43
10688;BME280;5392;42.688;23.298;2023-05-19T08:11:19;57528.22;;;-144.48;53.63
10688;BME280;5392;42.688;23.298;2023-05-19T08:13:47;57526.13;;;-144.48;52.88
10688;BME280;5392;42.688;23.298;2023-05-19T08:16:15;57526.13;;;-144.48;52.88
10688;BME280;5392;42.688;23.298;2023-05-19T08:18:42;57517.78;;;-144.48;52.15
10688;BME280;5392;42.688;23.298;2023-05-19T08:21:08;57507.34;;;-144.48;51.63
10688;BME280;5392;42.688;23.298;2023-05-19T08:23:35;57492.75;;;-144.48;51.13
10688;BME280;5392;42.688;23.298;2023-05-19T08:26:03;57490.66;;;-144.48;51.26
10688;BME280;5392;42.688;23.298;2023-05-19T08:28:29;57482.31;;;-144.48;50.23
10688;BME280;5392;42.688;23.298;2023-05-19T08:30:56;57478.13;;;-144.48;50.32
10688;BME280;5392;42.688;23.298;2023-05-19T08:33:23;57473.97;;;-144.48;49.83
10688;BME280;5392;42.688;23.298;2023-05-19T08:35:50;57513.63;;;-144.48;51.08
10688;BME280;5392;42.688;23.298;2023-05-19T08:38:16;57513.63;;;-144.48;50.52
10688;BME280;5392;42.688;23.298;2023-05-19T08:40:45;57515.69;;;-144.48;52.33
10688;BME280;5392;42.688;23.298;2023-05-19T08:43:13;57480.22;;;-144.48;53.05
10688;BME280;5392;42.688;23.298;2023-05-19T08:45:44;57517.78;;;-144.48;52.50
10688;BME280;5392;42.688;23.298;2023-05-19T08:48:16;57532.41;;;-144.48;55.68
10688;BME280;5392;42.688;23.298;2023-05-19T08:50:50;57519.88;;;-144.48;55.70
10688;BME280;5392;42.688;23.298;2023-05-19T08:53:26;57521.97;;;-144.48;55.48
10688;BME280;5392;42.688;23.298;2023-05-19T08:56:10;57547.00;;;-144.48;56.50
10688;BME280;5392;42.688;23.298;2023-05-19T08:58:38;57524.06;;;-144.48;57.59
10688;BME280;5392;42.688;23.298;2023-05-19T09:01:12;57551.19;;;-144.48;56.70
10688;BME280;5392;42.688;23.298;2023-05-19T09:03:39;57530.31;;;-144.48;56.02
10688;BME280;5392;42.688;23.298;2023-05-19T09:06:09;57557.44;;;-144.48;56.76
10688;BME280;5392;42.688;23.298;2023-05-19T09:08:39;57534.50;;;-144.48;57.08
10688;BME280;5392;42.688;23.298;2023-05-19T09:11:08;57521.97;;;-144.48;59.05
10688;BME280;5392;42.688;23.298;2023-05-19T09:13:35;57542.84;;;-144.48;58.63
10688;BME280;5392;42.688;23.298;2023-05-19T09:16:02;57567.88;;;-144.48;58.61
10688;BME280;5392;42.688;23.298;2023-05-19T09:18:29;57567.88;;;-144.48;59.72
10688;BME280;5392;42.688;23.298;2023-05-19T09:21:00;57542.84;;;-144.48;59.59
10688;BME280;5392;42.688;23.298;2023-05-19T09:23:31;57538.66;;;-144.48;60.73
10688;BME280;5392;42.688;23.298;2023-05-19T09:26:04;57549.09;;;-144.48;59.51
10688;BME280;5392;42.688;23.298;2023-05-19T09:28:35;57532.41;;;-144.48;60.21
10688;BME280;5392;42.688;23.298;2023-05-19T09:33:35;57519.88;;;-144.48;60.52
10688;BME280;5392;42.688;23.298;2023-05-19T09:36:03;57536.56;;;-144.48;58.73
10688;BME280;5392;42.688;23.298;2023-05-19T09:38:34;57538.66;;;-144.48;59.54
10688;BME280;5392;42.688;23.298;2023-05-19T09:41:01;57536.56;;;-144.48;60.74
10688;BME280;5392;42.688;23.298;2023-05-19T09:43:29;57561.63;;;-144.48;58.76
10688;BME280;5392;42.688;23.298;2023-05-19T09:46:07;57551.19;;;-144.48;59.99
10688;BME280;5392;42.688;23.298;2023-05-19T09:48:37;57557.44;;;-144.48;58.74
10688;BME280;5392;42.688;23.298;2023-05-19T09:51:06;57561.63;;;-144.48;58.22
10688;BME280;5392;42.688;23.298;2023-05-19T09:53:33;57557.44;;;-144.48;58.39
10688;BME280;5392;42.688;23.298;2023-05-19T09:56:01;57542.84;;;-144.48;60.18
10688;BME280;5392;42.688;23.298;2023-05-19T09:58:32;57532.41;;;-144.48;60.09
10688;BME280;5392;42.688;23.298;2023-05-19T10:01:03;57524.06;;;-144.48;58.95
10688;BME280;5392;42.688;23.298;2023-05-19T10:03:30;57532.41;;;-144.48;58.49
10688;BME280;5392;42.688;23.298;2023-05-19T10:06:01;57580.41;;;-144.48;58.45
10688;BME280;5392;42.688;23.298;2023-05-19T10:08:30;57519.88;;;-144.48;57.86
10688;BME280;5392;42.688;23.298;2023-05-19T10:10:58;57595.03;;;-144.48;57.89
10688;BME280;5392;42.688;23.298;2023-05-19T10:13:25;57526.13;;;-144.48;57.16
10688;BME280;5392;42.688;23.298;2023-05-19T10:15:52;57509.44;;;-144.48;56.26
10688;BME280;5392;42.688;23.298;2023-05-19T10:18:25;57467.69;;;-144.48;56.08
10688;BME280;5392;42.688;23.298;2023-05-19T10:20:53;57509.44;;;-144.48;57.64
10688;BME280;5392;42.688;23.298;2023-05-19T10:23:20;57509.44;;;-144.48;57.77
10688;BME280;5392;42.688;23.298;2023-05-19T10:25:50;57532.41;;;-144.48;56.93
10688;BME280;5392;42.688;23.298;2023-05-19T10:28:18;57532.41;;;-144.48;56.75
10688;BME280;5392;42.688;23.298;2023-05-19T10:30:53;57534.50;;;-144.48;56.22
10688;BME280;5392;42.688;23.298;2023-05-19T10:33:32;57480.22;;;-144.48;57.26
10688;BME280;5392;42.688;23.298;2023-05-19T10:36:27;57536.56;;;-144.48;57.74
10688;BME280;5392;42.688;23.298;2023-05-19T10:39:14;57559.53;;;-144.48;56.97
10688;BME280;5392;42.688;23.298;2023-05-19T10:44:52;57521.97;;;-144.48;57.21
10688;BME280;5392;42.688;23.298;2023-05-19T10:47:26;57530.31;;;-144.48;56.83
10688;BME280;5392;42.688;23.298;2023-05-19T10:49:53;57547.00;;;-144.48;55.88
10688;BME280;5392;42.688;23.298;2023-05-19T10:52:21;57538.66;;;-144.48;55.84
10688;BME280;5392;42.688;23.298;2023-05-19T10:54:48;57482.31;;;-144.48;55.75
10688;BME280;5392;42.688;23.298;2023-05-19T10:57:17;57488.56;;;-144.48;55.48
10688;BME280;5392;42.688;23.298;2023-05-19T10:59:45;57509.44;;;-144.48;57.62
10688;BME280;5392;42.688;23.298;2023-05-19T11:02:38;57503.19;;;-144.48;56.05
10688;BME280;5392;42.688;23.298;2023-05-19T11:05:16;57486.47;;;-144.48;56.59
10688;BME280;5392;42.688;23.298;2023-05-19T11:07:54;57557.44;;;-144.48;56.99
10688;BME280;5392;42.688;23.298;2023-05-19T11:10:22;57492.75;;;-144.48;57.28
10688;BME280;5392;42.688;23.298;2023-05-19T11:12:50;57526.13;;;-144.48;57.72
10688;BME280;5392;42.688;23.298;2023-05-19T11:15:17;57551.19;;;-144.48;57.02
10688;BME280;5392;42.688;23.298;2023-05-19T11:17:50;57534.50;;;-144.48;56.93
10688;BME280;5392;42.688;23.298;2023-05-19T11:20:22;57530.31;;;-144.48;56.20
10688;BME280;5392;42.688;23.298;2023-05-19T11:23:08;57542.84;;;-144.48;55.54
10688;BME280;5392;42.688;23.298;2023-05-19T11:25:49;57507.34;;;-144.48;55.56
10688;BME280;5392;42.688;23.298;2023-05-19T11:28:18;57499.00;;;-144.48;55.65
10688;BME280;5392;42.688;23.298;2023-05-19T11:30:47;57526.13;;;-144.48;55.10
10688;BME280;5392;42.688;23.298;2023-05-19T11:33:20;57524.06;;;-144.48;55.48
10688;BME280;5392;42.688;23.298;2023-05-19T11:35:53;57517.78;;;-144.48;55.83
10688;BME280;5392;42.688;23.298;2023-05-19T11:38:23;57494.81;;;-144.48;56.29
10688;BME280;5392;42.688;23.298;2023-05-19T11:40:54;57551.19;;;-144.48;56.88
10688;BME280;5392;42.688;23.298;2023-05-19T11:43:23;57511.53;;;-144.48;57.34
10688;BME280;5392;42.688;23.298;2023-05-19T11:45:50;57544.94;;;-144.48;58.13
10688;BME280;5392;42.688;23.298;2023-05-19T11:48:19;57557.44;;;-144.48;56.81
10688;BME280;5392;42.688;23.298;2023-05-19T11:50:46;57507.34;;;-144.48;57.74
10688;BME280;5392;42.688;23.298;2023-05-19T11:53:14;57521.97;;;-144.48;57.31
10688;BME280;5392;42.688;23.298;2023-05-19T11:55:42;57511.53;;;-144.48;61.14
10688;BME280;5392;42.688;23.298;2023-05-19T11:58:11;57569.97;;;-144.48;62.39
10688;BME280;5392;42.688;23.298;2023-05-19T12:00:39;57536.56;;;-144.48;61.94
10688;BME280;5392;42.688;23.298;2023-05-19T12:03:07;57559.53;;;-144.48;63.78
10688;BME280;5392;42.688;23.298;2023-05-19T12:05:39;57532.41;;;-144.48;63.50
10688;BME280;5392;42.688;23.298;2023-05-19T12:08:10;57488.56;;;-144.48;63.52
10688;BME280;5392;42.688;23.298;2023-05-19T12:10:37;57528.22;;;-144.48;67.55
10688;BME280;5392;42.688;23.298;2023-05-19T12:13:05;57557.44;;;-144.48;70.62
10688;BME280;5392;42.688;23.298;2023-05-19T12:15:34;57540.75;;;-144.48;75.16
10688;BME280;5392;42.688;23.298;2023-05-19T12:18:02;57557.44;;;-144.48;79.90
10688;BME280;5392;42.688;23.298;2023-05-19T12:20:30;57494.81;;;-144.48;81.24
10688;BME280;5392;42.688;23.298;2023-05-19T12:23:02;57559.53;;;-144.48;81.00
10688;BME280;5392;42.688;23.298;2023-05-19T12:25:29;57519.88;;;-144.48;77.12
10688;BME280;5392;42.688;23.298;2023-05-19T12:28:01;57547.00;;;-144.48;77.17
10688;BME280;5392;42.688;23.298;2023-05-19T12:30:31;57538.66;;;-144.48;77.13
10688;BME280;5392;42.688;23.298;2023-05-19T12:33:00;57505.25;;;-144.48;77.44
10688;BME280;5392;42.688;23.298;2023-05-19T12:35:30;57565.81;;;-144.48;75.70
10688;BME280;5392;42.688;23.298;2023-05-19T12:38:03;57580.41;;;-144.48;74.87
10688;BME280;5392;42.688;23.298;2023-05-19T12:40:32;57549.09;;;-144.48;73.96
10688;BME280;5392;42.688;23.298;2023-05-19T12:43:01;57517.78;;;-144.48;73.07
10688;BME280;5392;42.688;23.298;2023-05-19T12:45:33;57517.78;;;-144.48;71.50
10688;BME280;5392;42.688;23.298;2023-05-19T12:48:20;57551.19;;;-144.48;70.23
10688;BME280;5392;42.688;23.298;2023-05-19T12:50:50;57574.16;;;-144.48;69.67
10688;BME280;5392;42.688;23.298;2023-05-19T12:53:18;57513.63;;;-144.48;67.00
10688;BME280;5392;42.688;23.298;2023-05-19T12:55:45;57484.41;;;-144.48;64.98
10688;BME280;5392;42.688;23.298;2023-05-19T12:58:14;57534.50;;;-144.48;64.07
10688;BME280;5392;42.688;23.298;2023-05-19T13:00:42;57513.63;;;-144.48;62.52
10688;BME280;5392;42.688;23.298;2023-05-19T13:03:28;57536.56;;;-144.48;62.45
10688;BME280;5392;42.688;23.298;2023-05-19T13:05:55;57534.50;;;-144.48;62.11
10688;BME280;5392;42.688;23.298;2023-05-19T13:08:24;57547.00;;;-144.48;62.68
10688;BME280;5392;42.688;23.298;2023-05-19T13:10:51;57530.31;;;-144.48;61.93